Terminal Aerodrome Forecast
Issued by NWS

Home | Current Version | Previous Version | Text Only | Print | Product List | Glossary On
Versions: 1 2 3 4 5 6 7 8 9 10 11 12 13 14 15 16 17 18 19 20 21 22 23 24
000
FTUS46 KLOX 300800 AAA
TAFLAX
TAF AMD
KLAX 300850Z 3009/3112 VRB04KT P6SM OVC080
     FM302000 26008KT P6SM BKN070 OVC100
     FM310500 VRB03KT P6SM OVC060
     FM310900 12005KT P6SM VCSH BKN050 OVC080=

USA.gov is the U.S. government's official web portal to all federal, state and local government web resources and services.